Meteo Giornale » Osservazioni meteo Stati Uniti (USA) » Brooksville Hernando
ore: 12:53 - Osservazioni Meteo Brooksville Hernando
Lat. 28° 28' N Lon. 82° 27' W Alt. 23 metri s.l.m.
33 °C
Sereno
Temp. 24 Ore
22 °C
33 °C
Nord
0 Km/h
Dew point 24 °C
Umidità 59 %
Visibilità 10 Km
Il sole sorge alle ore 07:07
Il sole tramonta alle ore 19:52
| Data e Ora | Cielo e Fenomeni | T °C | DP °C | Um. % | Pres. hPa | Vis. km | Vento km/h | |
|---|---|---|---|---|---|---|---|---|
| Oggi h: 12:53 | Sereno | 33 | 24 | 59 | 1018 | 10 | N 0 | |
| Oggi h: 11:53 | Poco Nuvoloso | 32 | 24 | 62 | 1018 | 10 | N 7.4 | |
| Oggi h: 10:53 | Sereno | 31 | 25 | 70 | 1018 | 10 | N 5.5 | |
| Oggi h: 09:53 | Sereno | 28 | 24 | 78 | 1018 | 10 | E/SE 7.4 | |
| Oggi h: 08:53 | Sereno | 27 | 26 | 94 | 1018 | 10 | N 5.5 | |
| Oggi h: 07:53 | Foschia | 23 | 23 | 100 | 1018 | 5 | N 0 | |
| Oggi h: 07:49 | Foschia | 23 | 23 | 100 | 1017 | 5 | N 0 | |
| Oggi h: 07:17 | Foschia | 22 | 22 | 100 | 1017 | 5 | N 0 | |
| Oggi h: 07:03 | Nebbia | 22 | 22 | 100 | 1017 | 2 | N 0 | |
| Oggi h: 06:56 | Foschia | 23 | 23 | 100 | 1017 | 5 | N 0 | |
| Oggi h: 06:53 | Foschia | 22 | 22 | 100 | 1017 | 10 | N 0 | |
| Oggi h: 06:26 | Poco Nuvoloso | 23 | 23 | 100 | 1017 | 10 | N 5.5 | |
| Oggi h: 06:19 | Foschia | 22 | 22 | 100 | 1017 | 2 | N 0 | |
| Oggi h: 06:12 | Nebbia | 22 | 22 | 100 | 1016 | 2 | N 0 | |
| Oggi h: 06:08 | Foschia | 22 | 22 | 100 | 1017 | 2 | N 0 | |
| Oggi h: 06:05 | Foschia | 23 | 23 | 100 | 1017 | 5 | N 0 | |
| Oggi h: 06:00 | Foschia | 23 | 23 | 100 | 1017 | 5 | N 0 | |
| Oggi h: 05:53 | Foschia | 22 | 22 | 100 | 1017 | 2 | N 0 | |
| Oggi h: 05:50 | Foschia | 22 | 22 | 100 | 1017 | 2 | N 0 | |
| Oggi h: 04:53 | Sereno | 23 | 23 | 100 | 1017 | 10 | N 5.5 | |
| Oggi h: 03:53 | Sereno | 23 | 23 | 100 | 1016 | 10 | N 0 | |
| Oggi h: 02:53 | Sereno | 23 | 23 | 100 | 1017 | 10 | N 5.5 | |
| Oggi h: 01:53 | Sereno | 24 | 24 | 100 | 1017 | 10 | E/SE 9.3 | |
| Oggi h: 00:53 | Sereno | 24 | 24 | 100 | 1017 | 10 | E 7.4 | |
| Ieri h: 23:53 | Sereno | 24 | 24 | 100 | 1017 | 10 | E/NE 7.4 | |
| Ieri h: 22:53 | Sereno | 24 | 24 | 100 | 1018 | 10 | N 5.5 | |
| Ieri h: 21:53 | Sereno | 24 | 24 | 100 | 1018 | 10 | N 5.5 | |
| Ieri h: 20:53 | Sereno | 24 | 24 | 100 | 1018 | 10 | N 0 | |
| Ieri h: 19:53 | Pioggia | 23 | 23 | 100 | 1017 | 10 | N/NE 7.4 | |
| Ieri h: 18:53 | Temporale nelle vicinanze Pioggia | 23 | 23 | 100 | 1017 | 8 | N 11.1 | |
| Ieri h: 18:49 | Temporale nelle vicinanze Pioggia | 23 | 23 | 100 | 1017 | 2 | NO 7.4 | |
| Ieri h: 18:47 | Temporale Foschia | 23 | 23 | 100 | 1017 | 5 | O/NO 7.4 | |
| Ieri h: 18:36 | Temporale Foschia | 23 | 23 | 100 | 1018 | 2 | O/SO 11.1 | |
| Ieri h: 18:25 | Temporale Nebbia | 23 | 23 | 100 | 1018 | 2 | S/SO 14.8 | |
| Ieri h: 18:05 | Temporale Nebbia | 24 | 24 | 100 | 1018 | 2 | S/SO 35.2 | |
| Ieri h: 17:59 | Temporale Nebbia | 25 | 24 | 94 | 1018 | 2 | S 22.2 | |
| Ieri h: 17:56 | Temporale Foschia | 26 | 24 | 88 | 1018 | 2 | S/SE 24 | |
| Ieri h: 17:53 | Temporale Foschia | 26 | 24 | 88 | 1018 | 6 | S/SE 27.8 | |
| Ieri h: 17:41 | Temporale | 27 | 24 | 83 | 1017 | 10 | N 13 | |
| Ieri h: 16:53 | Temporale nelle vicinanze | 28 | 24 | 78 | 1016 | 10 | NO 14.8 | |
| Ieri h: 16:14 | Temporale nelle vicinanze | 30 | 24 | 70 | 1016 | 10 | E/NE 13 | |
| Ieri h: 16:07 | Pioggia | 29 | 25 | 79 | 1015 | 10 | E 13 | |
| Ieri h: 15:53 | Temporale nelle vicinanze | 31 | 24 | 66 | 1016 | 10 | E/NE 16.7 | |
| Ieri h: 15:49 | Temporale nelle vicinanze | 30 | 24 | 70 | 1016 | 10 | E/NE 20.3 | |
| Ieri h: 14:53 | Poco Nuvoloso | 33 | 24 | 59 | 1017 | 10 | E/SE 11.1 | |
| Ieri h: 13:53 | Molto Nuvoloso | 33 | 24 | 59 | 1017 | 10 | N 9.3 | |



